Terminal Aerodrome Forecast
Issued by NWS New Orleans/Baton Rouge, LA

Home | Current Version | Previous Version | Text Only | Print | Product List | Glossary On
Versions: 1 2 3 4 5 6 7 8 9 10 11 12 13 14 15 16 17 18 19 20 21 22 23 24 25 26 27 28 29 30 31 32 33 34 35 36 37 38 39 40 41 42 43 44 45 46 47 48 49
000
FTUS44 KLIX 022300
TAFNEW
TAF
KNEW 022332Z 0300/0324 08008KT 6SM BR SCT008 BKN025
      TEMPO 0300/0303 2SM BR BKN008
     FM030300 10006KT 1/4SM FG OVC002
     FM031500 15009KT 3SM BR BKN003
     FM031800 16010KT P6SM BKN008
     FM032100 16011KT P6SM BKN015=

USA.gov is the U.S. government's official web portal to all federal, state and local government web resources and services.